createdAt,value
2019-04-20T00:01:38.944Z,9.40
2019-04-20T00:04:09.941Z,9.30
2019-04-20T00:06:43.835Z,9.20
2019-04-20T00:09:15.206Z,9.10
2019-04-20T00:11:51.693Z,9.20
2019-04-20T00:14:14.495Z,9.20
2019-04-20T00:16:38.285Z,9.20
2019-04-20T00:19:07.717Z,9.20
2019-04-20T00:21:49.601Z,9.10
2019-04-20T00:24:21.769Z,9.10
2019-04-20T00:27:22.087Z,9.10
2019-04-20T00:29:38.029Z,8.90
2019-04-20T00:31:58.367Z,8.80
2019-04-20T00:34:24.098Z,8.70
2019-04-20T00:36:45.550Z,8.60
2019-04-20T00:39:16.830Z,8.50
2019-04-20T00:41:48.966Z,8.40
2019-04-20T00:44:21.301Z,8.40
2019-04-20T00:46:58.772Z,8.40
2019-04-20T00:49:27.911Z,8.20
2019-04-20T00:52:13.499Z,8.10
2019-04-20T00:54:13.802Z,8.10
2019-04-20T00:56:43.153Z,8.10
2019-04-20T00:59:24.063Z,8.10
2019-04-20T01:02:00.194Z,8.20
2019-04-20T01:04:29.900Z,8.20
2019-04-20T01:07:06.252Z,8.30
2019-04-20T01:09:39.432Z,8.00
2019-04-20T01:12:14.758Z,8.00
2019-04-20T01:14:44.880Z,7.90
2019-04-20T01:17:12.097Z,7.90
2019-04-20T01:19:37.646Z,7.80
2019-04-20T01:22:10.700Z,7.70
2019-04-20T01:24:40.498Z,7.70
2019-04-20T01:27:11.199Z,7.60
2019-04-20T01:29:43.636Z,7.70
2019-04-20T01:32:18.799Z,7.70
2019-04-20T01:34:47.662Z,7.70
2019-04-20T01:37:24.569Z,7.80
2019-04-20T01:39:43.157Z,7.80
2019-04-20T01:42:06.524Z,7.60
2019-04-20T01:44:40.206Z,7.40
2019-04-20T01:47:06.670Z,7.40
2019-04-20T01:49:36.822Z,7.20
2019-04-20T01:52:13.007Z,7.20
2019-04-20T01:54:59.416Z,7.10
2019-04-20T01:57:26.245Z,7.10
2019-04-20T02:00:13.207Z,7.10
2019-04-20T02:02:48.748Z,7.10
2019-04-20T02:05:22.825Z,7.10
2019-04-20T02:07:49.376Z,7.00
2019-04-20T02:10:18.651Z,7.00
2019-04-20T02:12:50.305Z,7.00
2019-04-20T02:15:29.101Z,7.00
2019-04-20T02:18:03.108Z,6.80
2019-04-20T02:20:37.453Z,6.80
2019-04-20T02:23:06.543Z,6.70
2019-04-20T02:25:22.660Z,6.70
2019-04-20T02:27:55.558Z,6.60
2019-04-20T02:30:55.740Z,6.50
2019-04-20T02:33:34.759Z,6.50
2019-04-20T02:38:56.446Z,6.70
2019-04-20T02:43:46.825Z,6.50
2019-04-20T02:45:58.226Z,6.50
2019-04-20T02:48:40.075Z,6.70
2019-04-20T02:51:06.249Z,6.60
2019-04-20T02:53:40.819Z,6.40
2019-04-20T02:56:15.103Z,6.20
2019-04-20T02:58:42.253Z,6.20
2019-04-20T03:01:05.871Z,6.20
2019-04-20T03:03:20.277Z,6.10
2019-04-20T03:05:51.766Z,6.20
2019-04-20T03:08:29.353Z,6.00
2019-04-20T03:11:09.338Z,6.00
2019-04-20T03:13:31.981Z,5.90
2019-04-20T03:16:00.361Z,5.90
2019-04-20T03:18:31.113Z,5.80
2019-04-20T03:21:05.384Z,6.00
2019-04-20T03:23:48.103Z,6.00
2019-04-20T03:26:21.474Z,5.90
2019-04-20T03:28:51.744Z,5.90
2019-04-20T03:32:03.639Z,6.00
2019-04-20T03:34:41.406Z,6.00
2019-04-20T03:36:46.959Z,6.00
2019-04-20T03:39:10.014Z,6.00
2019-04-20T03:41:29.087Z,5.90
2019-04-20T03:43:54.088Z,5.80
2019-04-20T03:46:31.061Z,5.80
2019-04-20T03:49:15.779Z,5.60
2019-04-20T03:51:47.087Z,5.70
2019-04-20T03:54:14.757Z,5.60
2019-04-20T03:57:09.179Z,5.50
2019-04-20T03:59:33.271Z,5.40
2019-04-20T04:02:29.819Z,5.30
2019-04-20T04:05:04.395Z,5.20
2019-04-20T04:07:26.802Z,5.20
2019-04-20T04:10:08.126Z,5.20
2019-04-20T04:12:54.794Z,5.10
2019-04-20T04:15:23.194Z,5.00
2019-04-20T04:17:51.525Z,5.00
2019-04-20T04:20:27.560Z,5.00
2019-04-20T04:23:10.487Z,5.10
2019-04-20T04:25:34.494Z,5.10
2019-04-20T04:28:12.914Z,5.00
2019-04-20T04:30:37.894Z,5.10
2019-04-20T04:33:40.266Z,5.00
2019-04-20T04:35:33.505Z,5.10
2019-04-20T04:38:06.980Z,5.00
2019-04-20T04:40:51.404Z,5.10
2019-04-20T04:43:15.978Z,5.00
2019-04-20T04:45:27.286Z,5.10
2019-04-20T04:47:53.637Z,5.10
2019-04-20T04:50:26.148Z,5.10
2019-04-20T04:52:59.481Z,5.30
2019-04-20T04:55:32.748Z,5.30
2019-04-20T04:57:51.843Z,5.40
2019-04-20T05:00:25.538Z,5.40
2019-04-20T05:03:25.569Z,5.30
2019-04-20T05:06:06.673Z,5.40
2019-04-20T05:08:34.487Z,5.30
2019-04-20T05:10:58.280Z,5.20
2019-04-20T05:13:35.801Z,5.20
2019-04-20T05:16:08.107Z,5.30
2019-04-20T05:18:51.437Z,5.20
2019-04-20T05:21:21.610Z,5.40
2019-04-20T05:23:53.367Z,5.40
2019-04-20T05:26:30.006Z,5.50
2019-04-20T05:28:55.595Z,5.60
2019-04-20T05:31:17.229Z,5.70
2019-04-20T05:34:15.739Z,5.80
2019-04-20T05:36:43.403Z,5.90
2019-04-20T05:39:19.462Z,6.00
2019-04-20T05:41:40.331Z,6.20
2019-04-20T05:44:10.004Z,6.30
2019-04-20T05:46:42.434Z,6.50
2019-04-20T05:49:19.095Z,6.70
2019-04-20T05:51:40.728Z,6.90
2019-04-20T05:54:13.794Z,7.10
2019-04-20T05:56:56.403Z,7.20
2019-04-20T05:59:15.210Z,7.40
2019-04-20T06:01:53.266Z,7.60
2019-04-20T06:04:54.588Z,7.80
2019-04-20T06:07:11.316Z,8.10
2019-04-20T06:09:39.757Z,8.30
2019-04-20T06:14:52.263Z,8.90
2019-04-20T06:17:31.388Z,9.10
2019-04-20T06:20:05.096Z,9.40
2019-04-20T06:22:42.862Z,9.70
2019-04-20T06:25:23.493Z,9.90
2019-04-20T06:27:41.063Z,10.20
2019-04-20T06:30:08.256Z,10.50
2019-04-20T06:33:21.916Z,10.70
2019-04-20T06:38:40.314Z,11.20
2019-04-20T06:40:57.727Z,11.40
2019-04-20T06:43:12.578Z,11.70
2019-04-20T06:45:54.870Z,12.00
2019-04-20T06:48:21.486Z,12.20
2019-04-20T06:50:44.540Z,12.50
2019-04-20T06:53:23.842Z,12.80
2019-04-20T06:55:59.149Z,13.00
2019-04-20T06:58:39.365Z,13.40
2019-04-20T07:01:01.263Z,13.60
2019-04-20T07:03:37.047Z,13.90
2019-04-20T07:05:50.547Z,14.20
2019-04-20T07:08:40.906Z,14.50
2019-04-20T07:10:59.392Z,14.80
2019-04-20T07:13:17.659Z,15.00
2019-04-20T07:15:50.764Z,15.20
2019-04-20T07:18:29.927Z,15.50
2019-04-20T07:21:07.869Z,15.60
2019-04-20T07:23:35.255Z,15.90
2019-04-20T07:26:02.076Z,16.20
2019-04-20T07:28:32.816Z,16.40
2019-04-20T07:31:05.722Z,16.70
2019-04-20T07:33:32.258Z,16.90
2019-04-20T07:35:58.857Z,17.10
2019-04-20T07:38:34.438Z,17.30
2019-04-20T07:41:01.486Z,17.50
2019-04-20T07:43:30.021Z,17.80
2019-04-20T07:46:04.749Z,18.10
2019-04-20T07:48:25.772Z,18.40
2019-04-20T07:50:52.173Z,18.80
2019-04-20T07:53:26.024Z,19.10
2019-04-20T07:56:06.060Z,19.40
2019-04-20T07:58:22.736Z,19.60
2019-04-20T08:01:07.688Z,19.90
2019-04-20T08:05:55.250Z,20.50
2019-04-20T08:08:49.286Z,20.70
2019-04-20T08:11:22.343Z,20.90
2019-04-20T08:13:58.951Z,21.30
2019-04-20T08:16:32.993Z,21.60
2019-04-20T08:18:55.200Z,21.60
2019-04-20T08:21:31.345Z,21.70
2019-04-20T08:23:55.560Z,21.80
2019-04-20T08:26:14.012Z,22.10
2019-04-20T08:28:54.590Z,22.50
2019-04-20T08:31:37.069Z,22.80
2019-04-20T08:34:27.913Z,23.00
2019-04-20T08:36:54.942Z,22.80
2019-04-20T08:39:38.123Z,23.00
2019-04-20T08:41:58.953Z,23.30
2019-04-20T08:44:42.861Z,23.70
2019-04-20T08:47:01.338Z,24.10
2019-04-20T08:49:26.509Z,24.40
2019-04-20T08:51:55.637Z,24.70
2019-04-20T08:54:16.776Z,24.90
2019-04-20T08:56:38.981Z,25.20
2019-04-20T08:59:02.037Z,25.10
2019-04-20T09:01:35.711Z,25.20
2019-04-20T09:04:09.771Z,25.20
2019-04-20T09:06:49.053Z,25.50
2019-04-20T09:09:33.151Z,25.60
2019-04-20T09:11:54.260Z,25.50
2019-04-20T09:14:26.997Z,25.70
2019-04-20T09:17:02.851Z,25.90
2019-04-20T09:19:36.546Z,26.30
2019-04-20T09:22:28.256Z,26.60
2019-04-20T09:25:07.210Z,26.70
2019-04-20T09:27:26.856Z,27.00
2019-04-20T09:30:00.493Z,27.30
2019-04-20T09:33:03.621Z,27.40
2019-04-20T09:35:34.079Z,27.40
2019-04-20T09:38:01.741Z,27.60
2019-04-20T09:40:38.921Z,27.60
2019-04-20T09:42:49.124Z,27.90
2019-04-20T09:45:28.742Z,28.30
2019-04-20T09:47:52.881Z,28.70
2019-04-20T09:50:38.649Z,28.50
2019-04-20T09:53:10.003Z,28.60
2019-04-20T09:55:36.330Z,28.60
2019-04-20T09:58:09.979Z,28.90
2019-04-20T10:00:47.225Z,29.00
2019-04-20T10:03:02.372Z,28.80
2019-04-20T10:05:31.540Z,28.50
2019-04-20T10:08:04.363Z,29.20
2019-04-20T10:10:35.958Z,29.90
2019-04-20T10:13:00.579Z,30.10
2019-04-20T10:15:30.014Z,30.10
2019-04-20T10:17:59.551Z,29.80
2019-04-20T10:20:31.881Z,29.90
2019-04-20T10:22:58.480Z,29.60
2019-04-20T10:25:26.788Z,29.90
2019-04-20T10:27:55.776Z,30.40
2019-04-20T10:30:24.131Z,30.60
2019-04-20T10:32:54.163Z,30.60
2019-04-20T10:35:23.349Z,30.40
2019-04-20T10:37:56.099Z,30.70
2019-04-20T10:40:37.858Z,30.60
2019-04-20T10:42:55.183Z,31.20
2019-04-20T10:45:24.253Z,31.00
2019-04-20T10:47:52.824Z,31.00
2019-04-20T10:50:21.274Z,31.40
2019-04-20T10:52:51.873Z,31.40
2019-04-20T10:55:20.724Z,31.00
2019-04-20T10:57:49.382Z,31.10
2019-04-20T11:00:19.707Z,31.30
2019-04-20T11:02:49.568Z,30.80
2019-04-20T11:05:18.093Z,30.90
2019-04-20T11:07:46.416Z,31.50
2019-04-20T11:10:21.731Z,32.00
2019-04-20T11:12:44.561Z,32.00
2019-04-20T11:15:12.810Z,31.80
2019-04-20T11:17:41.740Z,31.90
2019-04-20T11:20:10.031Z,31.60
2019-04-20T11:22:38.255Z,31.80
2019-04-20T11:25:06.588Z,31.90
2019-04-20T11:27:36.309Z,31.90
2019-04-20T11:30:08.215Z,31.50
2019-04-20T11:32:36.438Z,31.80
2019-04-20T11:35:09.089Z,31.50
2019-04-20T11:37:35.290Z,31.20
2019-04-20T11:40:06.511Z,31.60
2019-04-20T11:42:35.365Z,31.80
2019-04-20T11:45:05.169Z,31.70
2019-04-20T11:47:33.690Z,31.80
2019-04-20T11:50:02.118Z,32.10
2019-04-20T11:52:31.938Z,32.60
2019-04-20T11:55:00.358Z,32.30
2019-04-20T11:57:29.292Z,32.20
2019-04-20T11:59:59.108Z,32.00
2019-04-20T12:02:40.220Z,31.90
2019-04-20T12:05:19.814Z,32.10
2019-04-20T12:07:46.940Z,32.10
2019-04-20T12:10:19.343Z,32.70
2019-04-20T12:12:49.406Z,32.70
2019-04-20T12:15:16.820Z,32.40
2019-04-20T12:17:45.235Z,31.80
2019-04-20T12:20:14.590Z,32.00
2019-04-20T12:22:44.209Z,32.10
2019-04-20T12:25:12.592Z,32.60
2019-04-20T12:27:47.470Z,32.80
2019-04-20T12:30:12.139Z,33.50
2019-04-20T12:32:44.996Z,33.40
2019-04-20T12:35:10.387Z,33.50
2019-04-20T12:37:39.301Z,33.50
2019-04-20T12:40:12.234Z,33.20
2019-04-20T12:42:43.168Z,33.20
2019-04-20T12:45:11.993Z,33.50
2019-04-20T12:47:41.504Z,33.00
2019-04-20T12:50:11.841Z,32.80
2019-04-20T12:52:40.695Z,32.40
2019-04-20T12:55:10.406Z,32.00
2019-04-20T12:57:38.751Z,32.40
2019-04-20T13:00:09.817Z,32.50
2019-04-20T13:02:38.194Z,33.30
2019-04-20T13:05:07.217Z,33.50
2019-04-20T13:07:39.599Z,32.60
2019-04-20T13:10:07.770Z,32.60
2019-04-20T13:12:40.785Z,32.30
2019-04-20T13:15:14.125Z,32.00
2019-04-20T13:17:42.550Z,32.30
2019-04-20T13:20:12.016Z,33.00
2019-04-20T13:22:41.171Z,32.70
2019-04-20T13:25:10.756Z,32.00
2019-04-20T13:27:39.134Z,32.50
2019-04-20T13:30:07.341Z,32.60
2019-04-20T13:32:36.044Z,32.80
2019-04-20T13:35:07.919Z,32.40
2019-04-20T13:37:38.716Z,32.20
2019-04-20T13:40:07.055Z,31.70
2019-04-20T13:42:36.471Z,31.60
2019-04-20T13:45:06.725Z,31.50
2019-04-20T13:47:35.109Z,31.90
2019-04-20T13:50:05.671Z,31.70
2019-04-20T13:52:35.011Z,31.80
2019-04-20T13:55:04.426Z,31.60
2019-04-20T13:57:40.097Z,31.50
2019-04-20T14:00:22.209Z,30.90
2019-04-20T14:03:04.826Z,30.60
2019-04-20T14:05:35.055Z,30.00
2019-04-20T14:08:07.345Z,30.10
2019-04-20T14:10:35.863Z,29.60
2019-04-20T14:13:11.348Z,30.00
2019-04-20T14:15:35.294Z,29.60
2019-04-20T14:18:04.838Z,29.80
2019-04-20T14:20:34.101Z,29.60
2019-04-20T14:23:03.193Z,29.40
2019-04-20T14:25:31.490Z,29.30
2019-04-20T14:28:00.747Z,29.00
2019-04-20T14:30:29.114Z,28.70
2019-04-20T14:32:58.718Z,28.80
2019-04-20T14:35:27.183Z,28.50
2019-04-20T14:37:55.395Z,28.30
2019-04-20T14:40:24.107Z,28.40
2019-04-20T14:42:55.032Z,28.60
2019-04-20T14:45:22.839Z,28.40
2019-04-20T14:47:51.954Z,28.10
2019-04-20T14:50:20.800Z,27.90
2019-04-20T14:52:49.349Z,27.70
2019-04-20T14:55:19.095Z,27.20
2019-04-20T14:57:47.801Z,27.20
2019-04-20T15:00:29.861Z,27.00
2019-04-20T15:02:59.831Z,27.00
2019-04-20T15:05:28.844Z,26.70
2019-04-20T15:07:58.836Z,26.30
2019-04-20T15:10:27.163Z,26.20
2019-04-20T15:13:02.395Z,26.10
2019-04-20T15:15:28.443Z,26.00
2019-04-20T15:18:07.298Z,25.70
2019-04-20T15:20:37.483Z,25.60
2019-04-20T15:23:07.662Z,25.40
2019-04-20T15:25:36.733Z,25.10
2019-04-20T15:28:08.310Z,25.00
2019-04-20T15:30:36.668Z,25.00
2019-04-20T15:33:05.201Z,25.10
2019-04-20T15:35:34.688Z,25.10
2019-04-20T15:38:05.121Z,24.90
2019-04-20T15:40:33.500Z,24.70
2019-04-20T15:43:10.228Z,24.50
2019-04-20T15:45:31.806Z,24.30
2019-04-20T15:48:00.011Z,24.30
2019-04-20T15:50:29.689Z,24.20
2019-04-20T15:53:00.808Z,24.20
2019-04-20T15:55:32.979Z,24.20
2019-04-20T15:57:59.940Z,24.20
2019-04-20T16:00:28.635Z,24.00
2019-04-20T16:02:59.120Z,24.00
2019-04-20T16:05:35.589Z,23.90
2019-04-20T16:08:07.007Z,23.80
2019-04-20T16:10:39.196Z,23.70
2019-04-20T16:13:21.698Z,23.70
2019-04-20T16:15:39.994Z,23.60
2019-04-20T16:18:10.099Z,23.60
2019-04-20T16:20:51.698Z,23.50
2019-04-20T16:23:10.331Z,23.30
2019-04-20T16:25:41.431Z,23.10
2019-04-20T16:28:11.877Z,23.00
2019-04-20T16:30:41.252Z,23.00
2019-04-20T16:33:10.461Z,22.90
2019-04-20T16:35:42.534Z,22.70
2019-04-20T16:38:12.091Z,22.60
2019-04-20T16:40:40.342Z,22.60
2019-04-20T16:43:18.952Z,22.50
2019-04-20T16:45:39.139Z,22.30
2019-04-20T16:48:08.456Z,22.20
2019-04-20T16:50:37.054Z,22.20
2019-04-20T16:53:06.537Z,22.00
2019-04-20T16:55:34.968Z,22.00
2019-04-20T16:58:03.833Z,21.90
2019-04-20T17:00:33.435Z,21.80
2019-04-20T17:03:25.285Z,21.90
2019-04-20T17:05:52.104Z,21.80
2019-04-20T17:08:20.913Z,21.70
2019-04-20T17:10:49.385Z,21.60
2019-04-20T17:13:28.428Z,21.60
2019-04-20T17:15:47.987Z,21.50
2019-04-20T17:18:16.366Z,21.40
2019-04-20T17:20:44.620Z,21.30
2019-04-20T17:23:13.123Z,21.20
2019-04-20T17:25:41.927Z,21.10
2019-04-20T17:28:28.897Z,20.90
2019-04-20T17:31:04.531Z,20.80
2019-04-20T17:33:52.415Z,20.80
2019-04-20T17:36:16.738Z,20.70
2019-04-20T17:38:45.844Z,20.60
2019-04-20T17:41:23.765Z,20.60
2019-04-20T17:43:57.790Z,20.40
2019-04-20T17:46:19.450Z,20.30
2019-04-20T17:48:51.219Z,20.20
2019-04-20T17:51:27.744Z,20.10
2019-04-20T17:53:52.742Z,20.10
2019-04-20T17:56:17.298Z,20.00
2019-04-20T17:58:46.086Z,19.90
2019-04-20T18:01:28.008Z,19.70
2019-04-20T18:04:24.459Z,19.70
2019-04-20T18:06:41.542Z,19.60
2019-04-20T18:09:03.070Z,19.60
2019-04-20T18:11:23.578Z,19.40
2019-04-20T18:13:58.879Z,19.40
2019-04-20T18:16:46.917Z,19.20
2019-04-20T18:19:02.055Z,19.10
2019-04-20T18:21:28.868Z,19.00
2019-04-20T18:23:58.238Z,18.90
2019-04-20T18:26:45.324Z,18.90
2019-04-20T18:29:15.013Z,18.80
2019-04-20T18:31:43.731Z,18.70
2019-04-20T18:34:17.697Z,18.60
2019-04-20T18:36:47.182Z,18.50
2019-04-20T18:39:16.555Z,18.40
2019-04-20T18:41:48.351Z,18.40
2019-04-20T18:44:14.731Z,18.30
2019-04-20T18:47:08.099Z,18.10
2019-04-20T18:49:31.330Z,18.10
2019-04-20T18:51:44.017Z,18.00
2019-04-20T18:54:18.797Z,17.90
2019-04-20T18:56:47.336Z,17.80
2019-04-20T18:59:13.171Z,17.80
2019-04-20T19:01:43.797Z,17.70
2019-04-20T19:04:12.347Z,17.50
2019-04-20T19:06:41.450Z,17.40
2019-04-20T19:09:16.724Z,17.30
2019-04-20T19:11:49.601Z,17.20
2019-04-20T19:14:38.043Z,17.10
2019-04-20T19:17:13.932Z,17.20
2019-04-20T19:19:53.067Z,17.20
2019-04-20T19:22:20.321Z,17.10
2019-04-20T19:24:49.849Z,16.90
2019-04-20T19:27:19.826Z,16.70
2019-04-20T19:29:58.916Z,16.70
2019-04-20T19:32:36.894Z,16.50
2019-04-20T19:35:01.330Z,16.30
2019-04-20T19:37:28.517Z,16.20
2019-04-20T19:40:04.464Z,16.00
2019-04-20T19:42:34.968Z,16.00
2019-04-20T19:45:10.235Z,15.90
2019-04-20T19:47:44.156Z,15.90
2019-04-20T19:50:26.740Z,15.90
2019-04-20T19:52:51.554Z,15.90
2019-04-20T19:55:10.807Z,15.70
2019-04-20T19:57:42.452Z,15.70
2019-04-20T19:59:56.213Z,15.50
2019-04-20T20:02:23.735Z,15.30
2019-04-20T20:04:58.787Z,15.10
2019-04-20T20:07:33.328Z,15.00
2019-04-20T20:09:56.640Z,14.90
2019-04-20T20:12:23.333Z,14.70
2019-04-20T20:14:53.192Z,14.70
2019-04-20T20:17:43.543Z,14.60
2019-04-20T20:20:21.552Z,14.60
2019-04-20T20:22:33.684Z,14.50
2019-04-20T20:24:52.513Z,14.20
2019-04-20T20:27:31.409Z,14.00
2019-04-20T20:30:03.149Z,13.90
2019-04-20T20:32:39.051Z,13.90
2019-04-20T20:35:02.646Z,14.00
2019-04-20T20:37:29.522Z,13.90
2019-04-20T20:40:02.225Z,13.90
2019-04-20T20:42:30.644Z,13.80
2019-04-20T20:44:57.287Z,13.70
2019-04-20T20:47:41.157Z,13.60
2019-04-20T20:50:12.986Z,13.50
2019-04-20T20:52:37.888Z,13.20
2019-04-20T20:54:59.095Z,13.10
2019-04-20T20:57:24.822Z,13.00
2019-04-20T20:59:57.419Z,13.00
2019-04-20T21:02:28.247Z,12.90
2019-04-20T21:04:51.420Z,12.90
2019-04-20T21:07:20.605Z,12.80
2019-04-20T21:09:50.311Z,12.80
2019-04-20T21:12:21.591Z,12.70
2019-04-20T21:14:49.165Z,12.60
2019-04-20T21:17:21.804Z,12.60
2019-04-20T21:20:05.273Z,12.40
2019-04-20T21:22:40.040Z,12.40
2019-04-20T21:24:51.090Z,12.30
2019-04-20T21:27:22.005Z,12.20
2019-04-20T21:29:52.603Z,12.10
2019-04-20T21:32:21.267Z,12.10
2019-04-20T21:34:58.468Z,12.00
2019-04-20T21:37:24.990Z,11.80
2019-04-20T21:39:59.011Z,11.80
2019-04-20T21:42:26.275Z,11.70
2019-04-20T21:45:02.776Z,11.60
2019-04-20T21:47:30.234Z,11.50
2019-04-20T21:50:09.820Z,11.20
2019-04-20T21:52:30.448Z,11.00
2019-04-20T21:54:52.203Z,10.90
2019-04-20T21:57:20.416Z,10.80
2019-04-20T21:59:52.385Z,10.80
2019-04-20T22:02:24.443Z,10.80
2019-04-20T22:04:49.294Z,10.70
2019-04-20T22:07:18.506Z,10.70
2019-04-20T22:09:50.359Z,10.60
2019-04-20T22:12:18.117Z,10.50
2019-04-20T22:14:48.719Z,10.50
2019-04-20T22:17:23.568Z,10.40
2019-04-20T22:20:02.906Z,10.30
2019-04-20T22:22:34.913Z,10.30
2019-04-20T22:25:01.403Z,10.10
2019-04-20T22:27:24.147Z,10.10
2019-04-20T22:29:46.226Z,10.00
2019-04-20T22:32:17.371Z,10.00
2019-04-20T22:34:47.494Z,10.00
2019-04-20T22:37:21.190Z,9.90
2019-04-20T22:39:50.794Z,9.90
2019-04-20T22:42:18.803Z,9.80
2019-04-20T22:44:54.716Z,9.80
2019-04-20T22:47:23.270Z,9.70
2019-04-20T22:49:59.962Z,9.90
2019-04-20T22:52:36.275Z,9.90
2019-04-20T22:55:11.731Z,9.70
2019-04-20T22:57:31.738Z,9.50
2019-04-20T22:59:58.401Z,9.50
2019-04-20T23:02:19.793Z,9.50
2019-04-20T23:04:47.006Z,9.40
2019-04-20T23:07:17.070Z,9.30
2019-04-20T23:09:52.933Z,9.20
2019-04-20T23:12:22.735Z,9.10
2019-04-20T23:14:50.210Z,9.10
2019-04-20T23:17:26.981Z,9.00
2019-04-20T23:19:54.199Z,8.90
2019-04-20T23:22:19.239Z,8.90
2019-04-20T23:24:48.979Z,9.00
2019-04-20T23:27:23.909Z,8.90
2019-04-20T23:29:49.084Z,8.90
2019-04-20T23:32:18.134Z,8.90
2019-04-20T23:34:49.049Z,9.00
2019-04-20T23:37:23.419Z,8.80
2019-04-20T23:39:50.727Z,8.60
2019-04-20T23:42:19.848Z,8.50
2019-04-20T23:44:54.279Z,8.40
2019-04-20T23:47:34.191Z,8.30
2019-04-20T23:50:19.442Z,8.40
2019-04-20T23:52:53.342Z,8.50
2019-04-20T23:55:09.819Z,8.50
2019-04-20T23:57:37.747Z,8.50
